sensor_id;sensor_type;location;lat;lon;timestamp;temperature;humidity
31979;DHT22;18502;43.574;1.276;2024-03-06T00:01:56;6.90;99.90
31979;DHT22;18502;43.574;1.276;2024-03-06T00:04:22;6.90;99.90
31979;DHT22;18502;43.574;1.276;2024-03-06T00:06:48;6.90;99.90
31979;DHT22;18502;43.574;1.276;2024-03-06T00:09:13;7.00;99.90
31979;DHT22;18502;43.574;1.276;2024-03-06T00:11:39;6.90;99.90
31979;DHT22;18502;43.574;1.276;2024-03-06T00:14:05;6.90;99.90
31979;DHT22;18502;43.574;1.276;2024-03-06T00:16:33;6.90;99.90
31979;DHT22;18502;43.574;1.276;2024-03-06T00:18:59;6.90;99.90
31979;DHT22;18502;43.574;1.276;2024-03-06T00:21:25;6.90;99.90
31979;DHT22;18502;43.574;1.276;2024-03-06T00:23:50;6.80;99.90
31979;DHT22;18502;43.574;1.276;2024-03-06T00:26:16;6.90;99.90
31979;DHT22;18502;43.574;1.276;2024-03-06T00:28:42;6.80;99.90
31979;DHT22;18502;43.574;1.276;2024-03-06T00:31:08;6.80;99.90
31979;DHT22;18502;43.574;1.276;2024-03-06T00:33:54;6.90;99.90
31979;DHT22;18502;43.574;1.276;2024-03-06T00:36:19;6.90;99.90
31979;DHT22;18502;43.574;1.276;2024-03-06T00:38:45;6.90;99.90
31979;DHT22;18502;43.574;1.276;2024-03-06T00:41:11;6.90;99.90
31979;DHT22;18502;43.574;1.276;2024-03-06T00:43:52;6.90;99.90
31979;DHT22;18502;43.574;1.276;2024-03-06T00:46:17;6.90;99.90
31979;DHT22;18502;43.574;1.276;2024-03-06T00:48:43;6.90;99.90
31979;DHT22;18502;43.574;1.276;2024-03-06T00:51:08;7.00;99.90
31979;DHT22;18502;43.574;1.276;2024-03-06T00:53:35;7.00;99.90
31979;DHT22;18502;43.574;1.276;2024-03-06T00:56:00;6.90;99.90
31979;DHT22;18502;43.574;1.276;2024-03-06T00:58:26;6.90;99.90
31979;DHT22;18502;43.574;1.276;2024-03-06T01:00:52;6.90;99.90
31979;DHT22;18502;43.574;1.276;2024-03-06T01:03:18;6.90;99.90
31979;DHT22;18502;43.574;1.276;2024-03-06T01:05:43;6.90;99.90
31979;DHT22;18502;43.574;1.276;2024-03-06T01:08:09;6.80;99.90
31979;DHT22;18502;43.574;1.276;2024-03-06T01:10:34;6.90;99.90
31979;DHT22;18502;43.574;1.276;2024-03-06T01:13:01;6.90;99.90
31979;DHT22;18502;43.574;1.276;2024-03-06T01:15:26;6.90;99.90
31979;DHT22;18502;43.574;1.276;2024-03-06T01:17:52;6.90;99.90
31979;DHT22;18502;43.574;1.276;2024-03-06T01:20:17;6.90;99.90
31979;DHT22;18502;43.574;1.276;2024-03-06T01:22:43;6.90;99.90
31979;DHT22;18502;43.574;1.276;2024-03-06T01:25:11;6.80;99.90
31979;DHT22;18502;43.574;1.276;2024-03-06T01:27:37;6.90;99.90
31979;DHT22;18502;43.574;1.276;2024-03-06T01:30:03;6.90;99.90
31979;DHT22;18502;43.574;1.276;2024-03-06T01:32:29;6.80;99.90
31979;DHT22;18502;43.574;1.276;2024-03-06T01:34:55;6.80;99.90
31979;DHT22;18502;43.574;1.276;2024-03-06T01:37:21;6.90;99.90
31979;DHT22;18502;43.574;1.276;2024-03-06T01:39:46;6.80;99.90
31979;DHT22;18502;43.574;1.276;2024-03-06T01:42:12;6.80;99.90
31979;DHT22;18502;43.574;1.276;2024-03-06T01:44:38;6.80;99.90
31979;DHT22;18502;43.574;1.276;2024-03-06T01:47:03;6.80;99.90
31979;DHT22;18502;43.574;1.276;2024-03-06T01:49:29;6.70;99.90
31979;DHT22;18502;43.574;1.276;2024-03-06T01:51:57;6.80;99.90
31979;DHT22;18502;43.574;1.276;2024-03-06T01:54:25;6.70;99.90
31979;DHT22;18502;43.574;1.276;2024-03-06T01:56:51;6.60;99.90
31979;DHT22;18502;43.574;1.276;2024-03-06T01:59:21;6.50;99.90
31979;DHT22;18502;43.574;1.276;2024-03-06T02:01:52;6.50;99.90
31979;DHT22;18502;43.574;1.276;2024-03-06T02:04:19;6.50;99.90
31979;DHT22;18502;43.574;1.276;2024-03-06T02:06:45;6.50;99.90
31979;DHT22;18502;43.574;1.276;2024-03-06T02:09:12;6.50;99.90
31979;DHT22;18502;43.574;1.276;2024-03-06T02:11:40;6.50;99.90
31979;DHT22;18502;43.574;1.276;2024-03-06T02:14:07;6.50;99.90
31979;DHT22;18502;43.574;1.276;2024-03-06T02:16:36;6.50;99.90
31979;DHT22;18502;43.574;1.276;2024-03-06T02:19:01;6.50;99.90
31979;DHT22;18502;43.574;1.276;2024-03-06T02:21:27;6.50;99.90
31979;DHT22;18502;43.574;1.276;2024-03-06T02:23:53;6.50;99.90
31979;DHT22;18502;43.574;1.276;2024-03-06T02:26:20;6.50;99.90
31979;DHT22;18502;43.574;1.276;2024-03-06T02:31:16;6.60;99.90
31979;DHT22;18502;43.574;1.276;2024-03-06T02:33:46;6.50;99.90
31979;DHT22;18502;43.574;1.276;2024-03-06T02:36:18;6.50;99.90
31979;DHT22;18502;43.574;1.276;2024-03-06T02:38:45;6.50;99.90
31979;DHT22;18502;43.574;1.276;2024-03-06T02:41:11;6.50;99.90
31979;DHT22;18502;43.574;1.276;2024-03-06T02:43:37;6.40;99.90
31979;DHT22;18502;43.574;1.276;2024-03-06T02:46:03;6.40;99.90
31979;DHT22;18502;43.574;1.276;2024-03-06T02:48:29;6.50;99.90
31979;DHT22;18502;43.574;1.276;2024-03-06T02:50:56;6.50;99.90
31979;DHT22;18502;43.574;1.276;2024-03-06T02:53:21;6.40;99.90
31979;DHT22;18502;43.574;1.276;2024-03-06T02:55:47;6.30;99.90
31979;DHT22;18502;43.574;1.276;2024-03-06T02:58:14;6.20;99.90
31979;DHT22;18502;43.574;1.276;2024-03-06T03:00:40;6.20;99.90
31979;DHT22;18502;43.574;1.276;2024-03-06T03:03:06;6.20;99.90
31979;DHT22;18502;43.574;1.276;2024-03-06T03:05:32;6.20;99.90
31979;DHT22;18502;43.574;1.276;2024-03-06T03:07:59;6.20;99.90
31979;DHT22;18502;43.574;1.276;2024-03-06T03:10:25;6.10;99.90
31979;DHT22;18502;43.574;1.276;2024-03-06T03:12:51;6.20;99.90
31979;DHT22;18502;43.574;1.276;2024-03-06T03:15:16;6.20;99.90
31979;DHT22;18502;43.574;1.276;2024-03-06T03:17:42;6.20;99.90
31979;DHT22;18502;43.574;1.276;2024-03-06T03:20:08;6.20;99.90
31979;DHT22;18502;43.574;1.276;2024-03-06T03:22:38;6.20;99.90
31979;DHT22;18502;43.574;1.276;2024-03-06T03:25:10;6.10;99.90
31979;DHT22;18502;43.574;1.276;2024-03-06T03:27:37;6.20;99.90
31979;DHT22;18502;43.574;1.276;2024-03-06T03:30:04;6.20;99.90
31979;DHT22;18502;43.574;1.276;2024-03-06T03:32:30;6.20;99.90
31979;DHT22;18502;43.574;1.276;2024-03-06T03:34:56;6.20;99.90
31979;DHT22;18502;43.574;1.276;2024-03-06T03:37:21;6.20;99.90
31979;DHT22;18502;43.574;1.276;2024-03-06T03:39:47;6.20;99.90
31979;DHT22;18502;43.574;1.276;2024-03-06T03:42:13;6.20;99.90
31979;DHT22;18502;43.574;1.276;2024-03-06T03:44:38;6.20;99.90
31979;DHT22;18502;43.574;1.276;2024-03-06T03:47:05;6.20;99.90
31979;DHT22;18502;43.574;1.276;2024-03-06T03:49:31;6.20;99.90
31979;DHT22;18502;43.574;1.276;2024-03-06T03:51:56;6.20;99.90
31979;DHT22;18502;43.574;1.276;2024-03-06T03:54:22;6.20;99.90
31979;DHT22;18502;43.574;1.276;2024-03-06T03:56:47;6.20;99.90
31979;DHT22;18502;43.574;1.276;2024-03-06T03:59:14;6.20;99.90
31979;DHT22;18502;43.574;1.276;2024-03-06T04:01:39;6.10;99.90
31979;DHT22;18502;43.574;1.276;2024-03-06T04:04:05;6.10;99.90
31979;DHT22;18502;43.574;1.276;2024-03-06T04:06:32;6.10;99.90
31979;DHT22;18502;43.574;1.276;2024-03-06T04:08:58;6.10;99.90
31979;DHT22;18502;43.574;1.276;2024-03-06T04:11:23;6.10;99.90
31979;DHT22;18502;43.574;1.276;2024-03-06T04:13:49;6.00;99.90
31979;DHT22;18502;43.574;1.276;2024-03-06T04:16:17;6.00;99.90
31979;DHT22;18502;43.574;1.276;2024-03-06T04:18:44;6.00;99.90
31979;DHT22;18502;43.574;1.276;2024-03-06T04:21:11;6.00;99.90
31979;DHT22;18502;43.574;1.276;2024-03-06T04:23:36;6.00;99.90
31979;DHT22;18502;43.574;1.276;2024-03-06T04:26:03;6.00;99.90
31979;DHT22;18502;43.574;1.276;2024-03-06T04:28:29;6.00;99.90
31979;DHT22;18502;43.574;1.276;2024-03-06T04:30:55;6.10;99.90
31979;DHT22;18502;43.574;1.276;2024-03-06T04:33:21;6.00;99.90
31979;DHT22;18502;43.574;1.276;2024-03-06T04:35:47;6.10;99.90
31979;DHT22;18502;43.574;1.276;2024-03-06T04:38:12;6.00;99.90
31979;DHT22;18502;43.574;1.276;2024-03-06T04:40:39;6.00;99.90
31979;DHT22;18502;43.574;1.276;2024-03-06T04:43:04;6.00;99.90
31979;DHT22;18502;43.574;1.276;2024-03-06T04:45:31;6.00;99.90
31979;DHT22;18502;43.574;1.276;2024-03-06T04:47:56;6.00;99.90
31979;DHT22;18502;43.574;1.276;2024-03-06T04:50:22;6.10;99.90
31979;DHT22;18502;43.574;1.276;2024-03-06T04:52:48;6.10;99.90
31979;DHT22;18502;43.574;1.276;2024-03-06T04:55:13;6.00;99.90
31979;DHT22;18502;43.574;1.276;2024-03-06T04:57:43;6.00;99.90
31979;DHT22;18502;43.574;1.276;2024-03-06T05:00:10;5.90;99.90
31979;DHT22;18502;43.574;1.276;2024-03-06T05:02:36;6.00;99.90
31979;DHT22;18502;43.574;1.276;2024-03-06T05:05:03;5.90;99.90
31979;DHT22;18502;43.574;1.276;2024-03-06T05:07:29;5.90;99.90
31979;DHT22;18502;43.574;1.276;2024-03-06T05:09:56;5.80;99.90
31979;DHT22;18502;43.574;1.276;2024-03-06T05:12:23;5.90;99.90
31979;DHT22;18502;43.574;1.276;2024-03-06T05:14:49;5.90;99.90
31979;DHT22;18502;43.574;1.276;2024-03-06T05:17:15;5.90;99.90
31979;DHT22;18502;43.574;1.276;2024-03-06T05:19:40;5.90;99.90
31979;DHT22;18502;43.574;1.276;2024-03-06T05:22:06;5.90;99.90
31979;DHT22;18502;43.574;1.276;2024-03-06T05:24:31;5.90;99.90
31979;DHT22;18502;43.574;1.276;2024-03-06T05:26:57;5.90;99.90
31979;DHT22;18502;43.574;1.276;2024-03-06T05:29:23;5.90;99.90
31979;DHT22;18502;43.574;1.276;2024-03-06T05:31:49;5.90;99.90
31979;DHT22;18502;43.574;1.276;2024-03-06T05:34:14;5.90;99.90
31979;DHT22;18502;43.574;1.276;2024-03-06T05:36:40;6.00;99.90
31979;DHT22;18502;43.574;1.276;2024-03-06T05:39:05;5.90;99.90
31979;DHT22;18502;43.574;1.276;2024-03-06T05:41:33;5.90;99.90
31979;DHT22;18502;43.574;1.276;2024-03-06T05:43:59;5.90;99.90
31979;DHT22;18502;43.574;1.276;2024-03-06T05:46:24;5.90;99.90
31979;DHT22;18502;43.574;1.276;2024-03-06T05:48:51;5.90;99.90
31979;DHT22;18502;43.574;1.276;2024-03-06T05:51:17;5.80;99.90
31979;DHT22;18502;43.574;1.276;2024-03-06T05:53:43;5.70;99.90
31979;DHT22;18502;43.574;1.276;2024-03-06T05:56:09;5.60;99.90
31979;DHT22;18502;43.574;1.276;2024-03-06T05:58:36;5.50;99.90
31979;DHT22;18502;43.574;1.276;2024-03-06T06:01:02;5.50;99.90
31979;DHT22;18502;43.574;1.276;2024-03-06T06:03:29;5.40;99.90
31979;DHT22;18502;43.574;1.276;2024-03-06T06:05:55;5.40;99.90
31979;DHT22;18502;43.574;1.276;2024-03-06T06:08:21;5.30;99.90
31979;DHT22;18502;43.574;1.276;2024-03-06T06:10:47;5.30;99.90
31979;DHT22;18502;43.574;1.276;2024-03-06T06:13:12;5.30;99.90
31979;DHT22;18502;43.574;1.276;2024-03-06T06:15:38;5.30;99.90
31979;DHT22;18502;43.574;1.276;2024-03-06T06:18:04;5.30;99.90
31979;DHT22;18502;43.574;1.276;2024-03-06T06:20:30;5.30;99.90
31979;DHT22;18502;43.574;1.276;2024-03-06T06:22:55;5.30;99.90
31979;DHT22;18502;43.574;1.276;2024-03-06T06:25:22;5.40;99.90
31979;DHT22;18502;43.574;1.276;2024-03-06T06:27:48;5.40;99.90
31979;DHT22;18502;43.574;1.276;2024-03-06T06:30:17;5.40;99.90
31979;DHT22;18502;43.574;1.276;2024-03-06T06:32:43;5.40;99.90
31979;DHT22;18502;43.574;1.276;2024-03-06T06:35:12;5.40;99.90
31979;DHT22;18502;43.574;1.276;2024-03-06T06:37:41;5.40;99.90
31979;DHT22;18502;43.574;1.276;2024-03-06T06:40:07;5.40;99.90
31979;DHT22;18502;43.574;1.276;2024-03-06T06:42:36;5.50;99.90
31979;DHT22;18502;43.574;1.276;2024-03-06T06:45:02;5.50;99.90
31979;DHT22;18502;43.574;1.276;2024-03-06T06:47:28;5.50;99.90
31979;DHT22;18502;43.574;1.276;2024-03-06T06:49:54;5.50;99.90
31979;DHT22;18502;43.574;1.276;2024-03-06T06:52:19;5.50;99.90
31979;DHT22;18502;43.574;1.276;2024-03-06T06:54:45;5.60;99.90
31979;DHT22;18502;43.574;1.276;2024-03-06T06:57:11;5.80;99.90
31979;DHT22;18502;43.574;1.276;2024-03-06T06:59:36;5.90;99.90
31979;DHT22;18502;43.574;1.276;2024-03-06T07:02:03;5.90;99.90
31979;DHT22;18502;43.574;1.276;2024-03-06T07:04:28;5.90;99.90
31979;DHT22;18502;43.574;1.276;2024-03-06T07:06:54;6.00;99.90
31979;DHT22;18502;43.574;1.276;2024-03-06T07:09:20;6.10;99.90
31979;DHT22;18502;43.574;1.276;2024-03-06T07:11:46;6.10;99.90
31979;DHT22;18502;43.574;1.276;2024-03-06T07:14:14;6.20;99.90
31979;DHT22;18502;43.574;1.276;2024-03-06T07:16:43;6.20;99.90
31979;DHT22;18502;43.574;1.276;2024-03-06T07:19:09;6.30;99.90
31979;DHT22;18502;43.574;1.276;2024-03-06T07:21:34;6.40;99.90
31979;DHT22;18502;43.574;1.276;2024-03-06T07:24:00;6.30;99.90
31979;DHT22;18502;43.574;1.276;2024-03-06T07:26:26;6.30;99.90
31979;DHT22;18502;43.574;1.276;2024-03-06T07:28:51;6.30;99.90
31979;DHT22;18502;43.574;1.276;2024-03-06T07:31:18;6.40;99.90
31979;DHT22;18502;43.574;1.276;2024-03-06T07:33:44;6.40;99.90
31979;DHT22;18502;43.574;1.276;2024-03-06T07:36:09;6.50;99.90
31979;DHT22;18502;43.574;1.276;2024-03-06T07:38:35;6.60;99.90
31979;DHT22;18502;43.574;1.276;2024-03-06T07:41:01;6.60;99.90
31979;DHT22;18502;43.574;1.276;2024-03-06T07:43:27;6.80;99.90
31979;DHT22;18502;43.574;1.276;2024-03-06T07:45:52;6.80;99.90
31979;DHT22;18502;43.574;1.276;2024-03-06T07:48:19;6.80;99.90
31979;DHT22;18502;43.574;1.276;2024-03-06T07:50:45;6.90;99.90
31979;DHT22;18502;43.574;1.276;2024-03-06T07:53:10;7.00;99.90
31979;DHT22;18502;43.574;1.276;2024-03-06T07:55:36;7.10;99.90
31979;DHT22;18502;43.574;1.276;2024-03-06T07:58:04;7.00;99.90
31979;DHT22;18502;43.574;1.276;2024-03-06T08:00:30;6.90;99.90
31979;DHT22;18502;43.574;1.276;2024-03-06T08:02:56;6.80;99.90
31979;DHT22;18502;43.574;1.276;2024-03-06T08:05:22;6.70;99.90
31979;DHT22;18502;43.574;1.276;2024-03-06T08:07:48;6.70;99.90
31979;DHT22;18502;43.574;1.276;2024-03-06T08:10:14;6.80;99.90
31979;DHT22;18502;43.574;1.276;2024-03-06T08:12:44;6.80;99.90
31979;DHT22;18502;43.574;1.276;2024-03-06T08:15:11;6.90;99.90
31979;DHT22;18502;43.574;1.276;2024-03-06T08:17:42;7.00;99.90
31979;DHT22;18502;43.574;1.276;2024-03-06T08:20:09;7.00;99.90
31979;DHT22;18502;43.574;1.276;2024-03-06T08:22:39;7.00;99.90
31979;DHT22;18502;43.574;1.276;2024-03-06T08:25:09;7.20;99.90
31979;DHT22;18502;43.574;1.276;2024-03-06T08:27:35;7.30;99.90
31979;DHT22;18502;43.574;1.276;2024-03-06T08:30:05;7.30;99.90
31979;DHT22;18502;43.574;1.276;2024-03-06T08:32:32;7.30;99.90
31979;DHT22;18502;43.574;1.276;2024-03-06T08:35:04;7.20;99.90
31979;DHT22;18502;43.574;1.276;2024-03-06T08:37:33;7.40;99.90
31979;DHT22;18502;43.574;1.276;2024-03-06T08:40:00;7.60;99.90
31979;DHT22;18502;43.574;1.276;2024-03-06T08:42:27;7.90;99.90
31979;DHT22;18502;43.574;1.276;2024-03-06T08:44:52;8.00;99.90
31979;DHT22;18502;43.574;1.276;2024-03-06T08:47:18;8.30;99.90
31979;DHT22;18502;43.574;1.276;2024-03-06T08:49:44;8.50;99.90
31979;DHT22;18502;43.574;1.276;2024-03-06T08:52:10;8.50;99.90
31979;DHT22;18502;43.574;1.276;2024-03-06T08:54:36;8.70;99.90
31979;DHT22;18502;43.574;1.276;2024-03-06T08:57:03;8.80;99.90
31979;DHT22;18502;43.574;1.276;2024-03-06T08:59:29;9.20;99.90
31979;DHT22;18502;43.574;1.276;2024-03-06T09:01:55;9.80;99.90
31979;DHT22;18502;43.574;1.276;2024-03-06T09:04:21;10.40;99.90
31979;DHT22;18502;43.574;1.276;2024-03-06T09:06:47;11.30;99.90
31979;DHT22;18502;43.574;1.276;2024-03-06T09:09:14;11.80;99.90
31979;DHT22;18502;43.574;1.276;2024-03-06T09:11:43;11.70;99.90
31979;DHT22;18502;43.574;1.276;2024-03-06T09:14:09;11.10;99.90
31979;DHT22;18502;43.574;1.276;2024-03-06T09:16:35;11.50;99.90
31979;DHT22;18502;43.574;1.276;2024-03-06T09:19:01;11.50;99.90
31979;DHT22;18502;43.574;1.276;2024-03-06T09:21:28;11.80;99.90
31979;DHT22;18502;43.574;1.276;2024-03-06T09:23:53;12.10;99.90
31979;DHT22;18502;43.574;1.276;2024-03-06T09:26:19;12.30;99.90
31979;DHT22;18502;43.574;1.276;2024-03-06T09:28:46;12.00;99.90
31979;DHT22;18502;43.574;1.276;2024-03-06T09:31:12;11.50;99.90
31979;DHT22;18502;43.574;1.276;2024-03-06T09:33:41;11.80;99.90
31979;DHT22;18502;43.574;1.276;2024-03-06T09:36:10;12.50;99.90
31979;DHT22;18502;43.574;1.276;2024-03-06T09:38:36;13.00;99.90
31979;DHT22;18502;43.574;1.276;2024-03-06T09:41:03;13.40;99.90
31979;DHT22;18502;43.574;1.276;2024-03-06T09:43:29;13.90;99.90
31979;DHT22;18502;43.574;1.276;2024-03-06T09:45:56;14.40;99.90
31979;DHT22;18502;43.574;1.276;2024-03-06T09:48:22;16.90;99.90
31979;DHT22;18502;43.574;1.276;2024-03-06T09:50:49;17.70;99.90
31979;DHT22;18502;43.574;1.276;2024-03-06T09:53:16;19.50;99.90
31979;DHT22;18502;43.574;1.276;2024-03-06T09:55:44;21.70;99.90
31979;DHT22;18502;43.574;1.276;2024-03-06T09:58:11;20.80;99.90
31979;DHT22;18502;43.574;1.276;2024-03-06T10:00:38;16.00;99.90
31979;DHT22;18502;43.574;1.276;2024-03-06T10:03:04;14.20;99.90
31979;DHT22;18502;43.574;1.276;2024-03-06T10:05:34;13.70;99.90
31979;DHT22;18502;43.574;1.276;2024-03-06T10:08:04;15.10;99.90
31979;DHT22;18502;43.574;1.276;2024-03-06T10:10:30;16.20;99.90
31979;DHT22;18502;43.574;1.276;2024-03-06T10:12:56;20.00;99.90
31979;DHT22;18502;43.574;1.276;2024-03-06T10:15:26;23.00;98.30
31979;DHT22;18502;43.574;1.276;2024-03-06T10:18:13;24.50;96.40
31979;DHT22;18502;43.574;1.276;2024-03-06T10:20:40;25.70;91.60
31979;DHT22;18502;43.574;1.276;2024-03-06T10:23:09;26.60;90.80
31979;DHT22;18502;43.574;1.276;2024-03-06T10:25:34;26.70;88.30
31979;DHT22;18502;43.574;1.276;2024-03-06T10:28:04;26.90;85.20
31979;DHT22;18502;43.574;1.276;2024-03-06T10:30:31;27.00;84.00
31979;DHT22;18502;43.574;1.276;2024-03-06T10:32:56;23.50;91.30
31979;DHT22;18502;43.574;1.276;2024-03-06T10:35:22;22.50;92.30
31979;DHT22;18502;43.574;1.276;2024-03-06T10:37:48;23.90;90.40
31979;DHT22;18502;43.574;1.276;2024-03-06T10:40:15;25.90;87.00
31979;DHT22;18502;43.574;1.276;2024-03-06T10:42:42;27.10;85.20
31979;DHT22;18502;43.574;1.276;2024-03-06T10:45:14;24.30;86.50
31979;DHT22;18502;43.574;1.276;2024-03-06T10:47:41;21.70;90.60
31979;DHT22;18502;43.574;1.276;2024-03-06T10:50:08;23.00;89.60
31979;DHT22;18502;43.574;1.276;2024-03-06T10:52:36;22.70;89.50
31979;DHT22;18502;43.574;1.276;2024-03-06T10:55:04;22.70;90.30
31979;DHT22;18502;43.574;1.276;2024-03-06T10:57:30;25.30;87.20
31979;DHT22;18502;43.574;1.276;2024-03-06T10:59:57;27.60;83.70
31979;DHT22;18502;43.574;1.276;2024-03-06T11:02:27;29.10;78.60
31979;DHT22;18502;43.574;1.276;2024-03-06T11:04:53;29.60;77.20
31979;DHT22;18502;43.574;1.276;2024-03-06T11:07:19;29.70;76.60
31979;DHT22;18502;43.574;1.276;2024-03-06T11:09:45;30.30;76.10
31979;DHT22;18502;43.574;1.276;2024-03-06T11:12:35;30.50;76.60
31979;DHT22;18502;43.574;1.276;2024-03-06T11:15:29;30.10;71.80
31979;DHT22;18502;43.574;1.276;2024-03-06T11:17:55;30.40;74.50
31979;DHT22;18502;43.574;1.276;2024-03-06T11:20:21;28.60;72.20
31979;DHT22;18502;43.574;1.276;2024-03-06T11:28:25;24.60;81.90
31979;DHT22;18502;43.574;1.276;2024-03-06T11:30:58;28.70;74.70
31979;DHT22;18502;43.574;1.276;2024-03-06T11:33:34;30.00;73.00
31979;DHT22;18502;43.574;1.276;2024-03-06T11:39:05;31.40;68.90
31979;DHT22;18502;43.574;1.276;2024-03-06T11:44:16;33.70;65.80
31979;DHT22;18502;43.574;1.276;2024-03-06T11:49:31;32.80;66.70
31979;DHT22;18502;43.574;1.276;2024-03-06T11:52:03;32.90;65.70
31979;DHT22;18502;43.574;1.276;2024-03-06T11:54:31;34.10;64.70
31979;DHT22;18502;43.574;1.276;2024-03-06T11:57:01;33.70;62.50
31979;DHT22;18502;43.574;1.276;2024-03-06T11:59:28;29.70;66.30
31979;DHT22;18502;43.574;1.276;2024-03-06T12:02:02;31.10;64.50
31979;DHT22;18502;43.574;1.276;2024-03-06T12:04:30;32.30;63.50
31979;DHT22;18502;43.574;1.276;2024-03-06T12:06:59;33.10;62.70
31979;DHT22;18502;43.574;1.276;2024-03-06T12:09:25;34.00;60.50
31979;DHT22;18502;43.574;1.276;2024-03-06T12:11:52;33.70;60.20
31979;DHT22;18502;43.574;1.276;2024-03-06T12:14:20;34.10;61.40
31979;DHT22;18502;43.574;1.276;2024-03-06T12:16:59;34.30;60.60
31979;DHT22;18502;43.574;1.276;2024-03-06T12:19:31;35.30;59.50
31979;DHT22;18502;43.574;1.276;2024-03-06T12:22:03;36.40;58.30
31979;DHT22;18502;43.574;1.276;2024-03-06T12:24:33;34.80;56.70
31979;DHT22;18502;43.574;1.276;2024-03-06T12:27:04;36.40;55.90
31979;DHT22;18502;43.574;1.276;2024-03-06T12:29:32;36.90;55.20
31979;DHT22;18502;43.574;1.276;2024-03-06T12:31:59;37.00;53.10
31979;DHT22;18502;43.574;1.276;2024-03-06T12:34:24;36.90;53.80
31979;DHT22;18502;43.574;1.276;2024-03-06T12:36:50;34.90;52.70
31979;DHT22;18502;43.574;1.276;2024-03-06T12:39:17;33.80;54.90
31979;DHT22;18502;43.574;1.276;2024-03-06T12:41:50;32.40;54.70
31979;DHT22;18502;43.574;1.276;2024-03-06T12:44:16;30.40;56.80
31979;DHT22;18502;43.574;1.276;2024-03-06T12:46:42;33.40;57.90
31979;DHT22;18502;43.574;1.276;2024-03-06T12:49:07;35.60;53.10
31979;DHT22;18502;43.574;1.276;2024-03-06T12:51:33;34.60;53.60
31979;DHT22;18502;43.574;1.276;2024-03-06T12:54:00;33.60;54.80
31979;DHT22;18502;43.574;1.276;2024-03-06T12:56:26;32.00;55.60
31979;DHT22;18502;43.574;1.276;2024-03-06T12:58:52;31.70;57.20
31979;DHT22;18502;43.574;1.276;2024-03-06T13:01:18;33.00;55.60
31979;DHT22;18502;43.574;1.276;2024-03-06T13:03:43;32.90;55.50
31979;DHT22;18502;43.574;1.276;2024-03-06T13:06:09;32.50;56.40
31979;DHT22;18502;43.574;1.276;2024-03-06T13:08:35;33.30;57.50
31979;DHT22;18502;43.574;1.276;2024-03-06T13:11:01;35.40;55.70
31979;DHT22;18502;43.574;1.276;2024-03-06T13:13:28;36.20;54.10
31979;DHT22;18502;43.574;1.276;2024-03-06T13:15:56;36.50;53.30
31979;DHT22;18502;43.574;1.276;2024-03-06T13:18:21;37.70;51.70
31979;DHT22;18502;43.574;1.276;2024-03-06T13:20:47;37.50;50.00
31979;DHT22;18502;43.574;1.276;2024-03-06T13:23:13;38.00;50.70
31979;DHT22;18502;43.574;1.276;2024-03-06T13:25:39;36.50;50.80
31979;DHT22;18502;43.574;1.276;2024-03-06T13:28:05;31.20;55.10
31979;DHT22;18502;43.574;1.276;2024-03-06T13:30:31;27.40;61.40
31979;DHT22;18502;43.574;1.276;2024-03-06T13:32:57;25.40;64.30
31979;DHT22;18502;43.574;1.276;2024-03-06T13:35:23;24.00;67.10
31979;DHT22;18502;43.574;1.276;2024-03-06T13:37:49;23.40;68.90
31979;DHT22;18502;43.574;1.276;2024-03-06T13:40:15;22.30;71.40
31979;DHT22;18502;43.574;1.276;2024-03-06T13:42:41;21.10;71.90
31979;DHT22;18502;43.574;1.276;2024-03-06T13:45:08;21.30;73.60
31979;DHT22;18502;43.574;1.276;2024-03-06T13:47:37;25.90;65.60
31979;DHT22;18502;43.574;1.276;2024-03-06T13:50:05;25.20;63.90
31979;DHT22;18502;43.574;1.276;2024-03-06T13:52:33;27.10;63.80
31979;DHT22;18502;43.574;1.276;2024-03-06T13:54:59;31.80;58.90
31979;DHT22;18502;43.574;1.276;2024-03-06T13:57:28;31.90;58.40
31979;DHT22;18502;43.574;1.276;2024-03-06T13:59:54;27.40;63.30
31979;DHT22;18502;43.574;1.276;2024-03-06T14:02:19;26.00;66.10
31979;DHT22;18502;43.574;1.276;2024-03-06T14:04:45;24.30;68.40
31979;DHT22;18502;43.574;1.276;2024-03-06T14:07:11;23.20;72.30
31979;DHT22;18502;43.574;1.276;2024-03-06T14:09:36;22.30;71.50
31979;DHT22;18502;43.574;1.276;2024-03-06T14:12:03;22.80;72.10
31979;DHT22;18502;43.574;1.276;2024-03-06T14:14:28;26.00;69.50
31979;DHT22;18502;43.574;1.276;2024-03-06T14:16:54;27.80;65.30
31979;DHT22;18502;43.574;1.276;2024-03-06T14:19:20;26.10;67.20
31979;DHT22;18502;43.574;1.276;2024-03-06T14:21:47;31.20;64.00
31979;DHT22;18502;43.574;1.276;2024-03-06T14:24:13;33.60;58.70
31979;DHT22;18502;43.574;1.276;2024-03-06T14:26:38;34.30;55.70
31979;DHT22;18502;43.574;1.276;2024-03-06T14:29:06;29.80;57.80
31979;DHT22;18502;43.574;1.276;2024-03-06T14:31:33;25.30;65.30
31979;DHT22;18502;43.574;1.276;2024-03-06T14:34:00;23.60;69.80
31979;DHT22;18502;43.574;1.276;2024-03-06T14:36:25;26.50;67.80
31979;DHT22;18502;43.574;1.276;2024-03-06T14:38:51;30.70;62.40
31979;DHT22;18502;43.574;1.276;2024-03-06T14:41:20;32.30;58.10
31979;DHT22;18502;43.574;1.276;2024-03-06T14:43:46;32.90;56.10
31979;DHT22;18502;43.574;1.276;2024-03-06T14:46:12;33.40;54.60
31979;DHT22;18502;43.574;1.276;2024-03-06T14:48:38;33.80;54.10
31979;DHT22;18502;43.574;1.276;2024-03-06T14:51:04;33.70;54.40
31979;DHT22;18502;43.574;1.276;2024-03-06T14:53:30;33.80;54.30
31979;DHT22;18502;43.574;1.276;2024-03-06T14:55:57;33.80;55.00
31979;DHT22;18502;43.574;1.276;2024-03-06T14:58:22;33.80;54.70
31979;DHT22;18502;43.574;1.276;2024-03-06T15:00:49;33.20;53.50
31979;DHT22;18502;43.574;1.276;2024-03-06T15:03:16;31.90;53.90
31979;DHT22;18502;43.574;1.276;2024-03-06T15:05:43;32.20;55.90
31979;DHT22;18502;43.574;1.276;2024-03-06T15:08:08;32.30;55.70
31979;DHT22;18502;43.574;1.276;2024-03-06T15:10:34;32.00;57.00
31979;DHT22;18502;43.574;1.276;2024-03-06T15:13:00;31.60;57.40
31979;DHT22;18502;43.574;1.276;2024-03-06T15:15:25;31.20;56.70
31979;DHT22;18502;43.574;1.276;2024-03-06T15:17:51;31.50;55.90
31979;DHT22;18502;43.574;1.276;2024-03-06T15:20:17;31.30;55.50
31979;DHT22;18502;43.574;1.276;2024-03-06T15:22:46;31.50;57.60
31979;DHT22;18502;43.574;1.276;2024-03-06T15:25:13;31.20;55.80
31979;DHT22;18502;43.574;1.276;2024-03-06T15:27:40;30.60;57.20
31979;DHT22;18502;43.574;1.276;2024-03-06T15:30:09;29.90;57.70
31979;DHT22;18502;43.574;1.276;2024-03-06T15:32:36;30.00;57.70
31979;DHT22;18502;43.574;1.276;2024-03-06T15:35:03;30.20;56.70
31979;DHT22;18502;43.574;1.276;2024-03-06T15:37:32;29.90;56.00
31979;DHT22;18502;43.574;1.276;2024-03-06T15:39:57;28.40;58.60
31979;DHT22;18502;43.574;1.276;2024-03-06T15:42:24;26.80;59.60
31979;DHT22;18502;43.574;1.276;2024-03-06T15:44:51;26.00;61.90
31979;DHT22;18502;43.574;1.276;2024-03-06T15:47:18;25.70;64.00
31979;DHT22;18502;43.574;1.276;2024-03-06T15:49:44;26.30;62.10
31979;DHT22;18502;43.574;1.276;2024-03-06T15:52:11;26.80;61.70
31979;DHT22;18502;43.574;1.276;2024-03-06T15:54:37;27.30;61.20